sensor_id;sensor_type;location;lat;lon;timestamp;P1;durP1;ratioP1;P2;durP2;ratioP2
769;SDS011;368;48.698;9.116;2023-03-01T00:02:21;22.17;;;18.17;;
769;SDS011;368;48.698;9.116;2023-03-01T00:04:48;21.70;;;16.80;;
769;SDS011;368;48.698;9.116;2023-03-01T00:07:15;23.13;;;17.58;;
769;SDS011;368;48.698;9.116;2023-03-01T00:09:42;23.90;;;16.73;;
769;SDS011;368;48.698;9.116;2023-03-01T00:12:11;21.45;;;17.45;;
769;SDS011;368;48.698;9.116;2023-03-01T00:14:37;20.55;;;17.17;;
769;SDS011;368;48.698;9.116;2023-03-01T00:17:05;20.10;;;15.63;;
769;SDS011;368;48.698;9.116;2023-03-01T00:19:33;23.40;;;18.42;;
769;SDS011;368;48.698;9.116;2023-03-01T00:22:00;19.90;;;15.98;;
769;SDS011;368;48.698;9.116;2023-03-01T00:24:28;24.13;;;18.75;;
769;SDS011;368;48.698;9.116;2023-03-01T00:26:55;21.50;;;17.10;;
769;SDS011;368;48.698;9.116;2023-03-01T00:29:22;22.02;;;17.38;;
769;SDS011;368;48.698;9.116;2023-03-01T00:31:50;22.63;;;17.60;;
769;SDS011;368;48.698;9.116;2023-03-01T00:34:17;23.67;;;18.77;;
769;SDS011;368;48.698;9.116;2023-03-01T00:36:45;22.85;;;18.60;;
769;SDS011;368;48.698;9.116;2023-03-01T00:39:12;24.65;;;19.27;;
769;SDS011;368;48.698;9.116;2023-03-01T00:41:40;22.60;;;18.15;;
769;SDS011;368;48.698;9.116;2023-03-01T00:44:07;26.55;;;19.30;;
769;SDS011;368;48.698;9.116;2023-03-01T00:46:34;25.17;;;18.75;;
769;SDS011;368;48.698;9.116;2023-03-01T00:49:01;23.98;;;19.20;;
769;SDS011;368;48.698;9.116;2023-03-01T00:51:29;24.67;;;18.63;;
769;SDS011;368;48.698;9.116;2023-03-01T00:53:58;24.35;;;18.30;;
769;SDS011;368;48.698;9.116;2023-03-01T00:56:27;26.75;;;19.30;;
769;SDS011;368;48.698;9.116;2023-03-01T00:58:54;25.35;;;18.45;;
769;SDS011;368;48.698;9.116;2023-03-01T01:01:22;26.50;;;20.15;;
769;SDS011;368;48.698;9.116;2023-03-01T01:03:52;24.63;;;19.85;;
769;SDS011;368;48.698;9.116;2023-03-01T01:06:21;23.63;;;18.67;;
769;SDS011;368;48.698;9.116;2023-03-01T01:08:49;23.60;;;19.25;;
769;SDS011;368;48.698;9.116;2023-03-01T01:11:19;22.27;;;17.88;;
769;SDS011;368;48.698;9.116;2023-03-01T01:13:46;24.75;;;18.75;;
769;SDS011;368;48.698;9.116;2023-03-01T01:16:14;24.02;;;18.60;;
769;SDS011;368;48.698;9.116;2023-03-01T01:18:42;24.08;;;17.05;;
769;SDS011;368;48.698;9.116;2023-03-01T01:21:10;23.65;;;18.33;;
769;SDS011;368;48.698;9.116;2023-03-01T01:23:39;21.92;;;17.83;;
769;SDS011;368;48.698;9.116;2023-03-01T01:26:07;20.45;;;17.13;;
769;SDS011;368;48.698;9.116;2023-03-01T01:28:37;25.52;;;19.17;;
769;SDS011;368;48.698;9.116;2023-03-01T01:31:05;25.00;;;18.73;;
769;SDS011;368;48.698;9.116;2023-03-01T01:33:32;27.00;;;18.95;;
769;SDS011;368;48.698;9.116;2023-03-01T01:35:59;29.65;;;20.58;;
769;SDS011;368;48.698;9.116;2023-03-01T01:38:26;28.80;;;19.55;;
769;SDS011;368;48.698;9.116;2023-03-01T01:40:53;23.45;;;17.50;;
769;SDS011;368;48.698;9.116;2023-03-01T01:43:21;21.67;;;18.13;;
769;SDS011;368;48.698;9.116;2023-03-01T01:45:50;24.65;;;19.13;;
769;SDS011;368;48.698;9.116;2023-03-01T01:48:21;23.83;;;18.75;;
769;SDS011;368;48.698;9.116;2023-03-01T01:51:06;22.25;;;18.25;;
769;SDS011;368;48.698;9.116;2023-03-01T01:53:37;21.85;;;17.92;;
769;SDS011;368;48.698;9.116;2023-03-01T01:56:05;22.45;;;18.80;;
769;SDS011;368;48.698;9.116;2023-03-01T01:58:34;24.13;;;18.67;;
769;SDS011;368;48.698;9.116;2023-03-01T02:01:04;21.27;;;17.35;;
769;SDS011;368;48.698;9.116;2023-03-01T02:03:32;22.83;;;17.90;;
769;SDS011;368;48.698;9.116;2023-03-01T02:06:07;23.65;;;18.95;;
769;SDS011;368;48.698;9.116;2023-03-01T02:08:41;25.33;;;18.95;;
769;SDS011;368;48.698;9.116;2023-03-01T02:11:08;25.80;;;17.98;;
769;SDS011;368;48.698;9.116;2023-03-01T02:13:39;22.92;;;18.27;;
769;SDS011;368;48.698;9.116;2023-03-01T02:16:09;24.83;;;17.63;;
769;SDS011;368;48.698;9.116;2023-03-01T02:18:37;25.08;;;19.60;;
769;SDS011;368;48.698;9.116;2023-03-01T02:21:08;25.15;;;18.65;;
769;SDS011;368;48.698;9.116;2023-03-01T02:23:47;22.33;;;17.92;;
769;SDS011;368;48.698;9.116;2023-03-01T02:26:17;25.75;;;19.17;;
769;SDS011;368;48.698;9.116;2023-03-01T02:28:49;24.27;;;17.35;;
769;SDS011;368;48.698;9.116;2023-03-01T02:31:19;24.20;;;19.17;;
769;SDS011;368;48.698;9.116;2023-03-01T02:34:04;19.75;;;17.08;;
769;SDS011;368;48.698;9.116;2023-03-01T02:36:34;24.17;;;18.25;;
769;SDS011;368;48.698;9.116;2023-03-01T02:39:03;22.67;;;18.20;;
769;SDS011;368;48.698;9.116;2023-03-01T02:41:34;24.30;;;18.00;;
769;SDS011;368;48.698;9.116;2023-03-01T02:44:04;24.45;;;18.30;;
769;SDS011;368;48.698;9.116;2023-03-01T02:46:32;22.25;;;17.73;;
769;SDS011;368;48.698;9.116;2023-03-01T02:48:59;22.42;;;17.48;;
769;SDS011;368;48.698;9.116;2023-03-01T02:54:16;23.55;;;18.90;;
769;SDS011;368;48.698;9.116;2023-03-01T02:56:50;21.98;;;17.55;;
769;SDS011;368;48.698;9.116;2023-03-01T02:59:19;28.02;;;20.65;;
769;SDS011;368;48.698;9.116;2023-03-01T03:01:48;26.65;;;19.70;;
769;SDS011;368;48.698;9.116;2023-03-01T03:04:16;30.15;;;19.23;;
769;SDS011;368;48.698;9.116;2023-03-01T03:06:46;28.48;;;18.88;;
769;SDS011;368;48.698;9.116;2023-03-01T03:09:13;22.83;;;17.85;;
769;SDS011;368;48.698;9.116;2023-03-01T03:11:42;24.33;;;18.42;;
769;SDS011;368;48.698;9.116;2023-03-01T03:14:09;26.08;;;17.45;;
769;SDS011;368;48.698;9.116;2023-03-01T03:16:40;23.63;;;19.15;;
769;SDS011;368;48.698;9.116;2023-03-01T03:19:08;25.30;;;18.80;;
769;SDS011;368;48.698;9.116;2023-03-01T03:21:35;23.90;;;19.10;;
769;SDS011;368;48.698;9.116;2023-03-01T03:24:03;24.35;;;18.60;;
769;SDS011;368;48.698;9.116;2023-03-01T03:26:30;23.17;;;18.27;;
769;SDS011;368;48.698;9.116;2023-03-01T03:28:57;25.45;;;20.27;;
769;SDS011;368;48.698;9.116;2023-03-01T03:31:24;26.20;;;19.05;;
769;SDS011;368;48.698;9.116;2023-03-01T03:33:52;27.80;;;18.55;;
769;SDS011;368;48.698;9.116;2023-03-01T03:36:20;25.73;;;18.20;;
769;SDS011;368;48.698;9.116;2023-03-01T03:38:48;26.45;;;20.92;;
769;SDS011;368;48.698;9.116;2023-03-01T03:41:15;24.65;;;18.17;;
769;SDS011;368;48.698;9.116;2023-03-01T03:43:43;28.00;;;19.42;;
769;SDS011;368;48.698;9.116;2023-03-01T03:46:10;24.38;;;19.00;;
769;SDS011;368;48.698;9.116;2023-03-01T03:48:38;24.63;;;19.45;;
769;SDS011;368;48.698;9.116;2023-03-01T03:51:09;25.90;;;21.40;;
769;SDS011;368;48.698;9.116;2023-03-01T03:53:36;23.60;;;19.38;;
769;SDS011;368;48.698;9.116;2023-03-01T03:56:03;24.92;;;19.13;;
769;SDS011;368;48.698;9.116;2023-03-01T03:58:30;28.77;;;20.15;;
769;SDS011;368;48.698;9.116;2023-03-01T04:00:57;30.13;;;21.33;;
769;SDS011;368;48.698;9.116;2023-03-01T04:03:26;26.80;;;19.55;;
769;SDS011;368;48.698;9.116;2023-03-01T04:05:56;29.08;;;21.25;;
769;SDS011;368;48.698;9.116;2023-03-01T04:08:25;25.40;;;18.95;;
769;SDS011;368;48.698;9.116;2023-03-01T04:10:56;27.02;;;21.38;;
769;SDS011;368;48.698;9.116;2023-03-01T04:13:24;26.85;;;19.95;;
769;SDS011;368;48.698;9.116;2023-03-01T04:15:52;27.40;;;19.10;;
769;SDS011;368;48.698;9.116;2023-03-01T04:18:20;29.98;;;20.42;;
769;SDS011;368;48.698;9.116;2023-03-01T04:20:49;23.20;;;18.57;;
769;SDS011;368;48.698;9.116;2023-03-01T04:23:20;24.50;;;18.90;;
769;SDS011;368;48.698;9.116;2023-03-01T04:25:49;23.48;;;19.55;;
769;SDS011;368;48.698;9.116;2023-03-01T04:28:21;24.52;;;19.90;;
769;SDS011;368;48.698;9.116;2023-03-01T04:30:50;26.23;;;20.40;;
769;SDS011;368;48.698;9.116;2023-03-01T04:33:17;25.40;;;19.23;;
769;SDS011;368;48.698;9.116;2023-03-01T04:35:45;27.92;;;20.52;;
769;SDS011;368;48.698;9.116;2023-03-01T04:38:14;24.60;;;17.63;;
769;SDS011;368;48.698;9.116;2023-03-01T04:40:41;26.05;;;20.10;;
769;SDS011;368;48.698;9.116;2023-03-01T04:43:09;24.02;;;19.83;;
769;SDS011;368;48.698;9.116;2023-03-01T04:45:37;25.35;;;19.42;;
769;SDS011;368;48.698;9.116;2023-03-01T04:48:04;24.43;;;19.70;;
769;SDS011;368;48.698;9.116;2023-03-01T04:50:31;26.58;;;21.08;;
769;SDS011;368;48.698;9.116;2023-03-01T04:52:58;33.83;;;21.40;;
769;SDS011;368;48.698;9.116;2023-03-01T04:55:25;26.85;;;19.67;;
769;SDS011;368;48.698;9.116;2023-03-01T04:57:52;25.60;;;20.57;;
769;SDS011;368;48.698;9.116;2023-03-01T05:00:21;28.52;;;20.58;;
769;SDS011;368;48.698;9.116;2023-03-01T05:02:49;25.90;;;20.07;;
769;SDS011;368;48.698;9.116;2023-03-01T05:05:23;27.58;;;20.45;;
769;SDS011;368;48.698;9.116;2023-03-01T05:07:52;23.27;;;19.38;;
769;SDS011;368;48.698;9.116;2023-03-01T05:10:19;24.80;;;20.20;;
769;SDS011;368;48.698;9.116;2023-03-01T05:12:47;28.73;;;21.08;;
769;SDS011;368;48.698;9.116;2023-03-01T05:15:13;27.38;;;21.27;;
769;SDS011;368;48.698;9.116;2023-03-01T05:17:42;28.05;;;20.25;;
769;SDS011;368;48.698;9.116;2023-03-01T05:20:09;29.52;;;21.15;;
769;SDS011;368;48.698;9.116;2023-03-01T05:22:36;26.93;;;21.53;;
769;SDS011;368;48.698;9.116;2023-03-01T05:25:04;27.88;;;21.42;;
769;SDS011;368;48.698;9.116;2023-03-01T05:27:32;27.10;;;21.48;;
769;SDS011;368;48.698;9.116;2023-03-01T05:29:59;30.85;;;20.67;;
769;SDS011;368;48.698;9.116;2023-03-01T05:32:38;27.90;;;22.90;;
769;SDS011;368;48.698;9.116;2023-03-01T05:35:09;27.77;;;21.50;;
769;SDS011;368;48.698;9.116;2023-03-01T05:37:39;26.17;;;22.00;;
769;SDS011;368;48.698;9.116;2023-03-01T05:40:08;28.83;;;21.10;;
769;SDS011;368;48.698;9.116;2023-03-01T05:42:40;31.30;;;21.23;;
769;SDS011;368;48.698;9.116;2023-03-01T05:45:08;33.17;;;23.25;;
769;SDS011;368;48.698;9.116;2023-03-01T05:47:37;27.92;;;20.27;;
769;SDS011;368;48.698;9.116;2023-03-01T05:50:06;30.63;;;22.55;;
769;SDS011;368;48.698;9.116;2023-03-01T05:52:33;29.58;;;22.10;;
769;SDS011;368;48.698;9.116;2023-03-01T05:55:00;28.55;;;22.48;;
769;SDS011;368;48.698;9.116;2023-03-01T05:57:27;29.40;;;22.65;;
769;SDS011;368;48.698;9.116;2023-03-01T05:59:54;28.75;;;20.98;;
769;SDS011;368;48.698;9.116;2023-03-01T06:02:21;29.08;;;21.55;;
769;SDS011;368;48.698;9.116;2023-03-01T06:04:48;30.02;;;20.80;;
769;SDS011;368;48.698;9.116;2023-03-01T06:07:16;29.00;;;21.55;;
769;SDS011;368;48.698;9.116;2023-03-01T06:09:43;29.02;;;21.02;;
769;SDS011;368;48.698;9.116;2023-03-01T06:12:10;30.70;;;23.05;;
769;SDS011;368;48.698;9.116;2023-03-01T06:14:37;29.33;;;21.85;;
769;SDS011;368;48.698;9.116;2023-03-01T06:17:04;29.60;;;22.35;;
769;SDS011;368;48.698;9.116;2023-03-01T06:19:30;28.67;;;23.63;;
769;SDS011;368;48.698;9.116;2023-03-01T06:21:57;31.30;;;22.80;;
769;SDS011;368;48.698;9.116;2023-03-01T06:24:25;27.40;;;21.02;;
769;SDS011;368;48.698;9.116;2023-03-01T06:26:53;28.38;;;20.42;;
769;SDS011;368;48.698;9.116;2023-03-01T06:29:20;29.83;;;21.87;;
769;SDS011;368;48.698;9.116;2023-03-01T06:31:48;29.25;;;21.80;;
769;SDS011;368;48.698;9.116;2023-03-01T06:34:15;30.27;;;20.83;;
769;SDS011;368;48.698;9.116;2023-03-01T06:36:42;28.03;;;20.77;;
769;SDS011;368;48.698;9.116;2023-03-01T06:39:08;27.40;;;19.67;;
769;SDS011;368;48.698;9.116;2023-03-01T06:41:36;27.07;;;21.00;;
769;SDS011;368;48.698;9.116;2023-03-01T06:44:03;27.83;;;20.50;;
769;SDS011;368;48.698;9.116;2023-03-01T06:46:30;30.52;;;21.95;;
769;SDS011;368;48.698;9.116;2023-03-01T06:48:58;25.07;;;18.63;;
769;SDS011;368;48.698;9.116;2023-03-01T06:51:25;25.42;;;19.65;;
769;SDS011;368;48.698;9.116;2023-03-01T06:53:52;27.93;;;18.20;;
769;SDS011;368;48.698;9.116;2023-03-01T06:56:18;29.60;;;20.97;;
769;SDS011;368;48.698;9.116;2023-03-01T06:58:46;28.97;;;21.20;;
769;SDS011;368;48.698;9.116;2023-03-01T07:01:13;24.92;;;18.40;;
769;SDS011;368;48.698;9.116;2023-03-01T07:03:40;28.20;;;20.33;;
769;SDS011;368;48.698;9.116;2023-03-01T07:06:09;32.33;;;21.57;;
769;SDS011;368;48.698;9.116;2023-03-01T07:08:36;27.05;;;21.08;;
769;SDS011;368;48.698;9.116;2023-03-01T07:11:02;28.00;;;18.80;;
769;SDS011;368;48.698;9.116;2023-03-01T07:13:30;26.20;;;20.38;;
769;SDS011;368;48.698;9.116;2023-03-01T07:15:59;31.80;;;22.03;;
769;SDS011;368;48.698;9.116;2023-03-01T07:18:26;29.20;;;20.50;;
769;SDS011;368;48.698;9.116;2023-03-01T07:20:53;28.40;;;20.17;;
769;SDS011;368;48.698;9.116;2023-03-01T07:23:20;32.33;;;19.67;;
769;SDS011;368;48.698;9.116;2023-03-01T07:25:50;28.67;;;20.07;;
769;SDS011;368;48.698;9.116;2023-03-01T07:28:18;27.53;;;18.47;;
769;SDS011;368;48.698;9.116;2023-03-01T07:30:45;31.53;;;20.97;;
769;SDS011;368;48.698;9.116;2023-03-01T07:33:13;28.92;;;21.05;;
769;SDS011;368;48.698;9.116;2023-03-01T07:35:40;27.83;;;20.27;;
769;SDS011;368;48.698;9.116;2023-03-01T07:38:06;28.20;;;19.57;;
769;SDS011;368;48.698;9.116;2023-03-01T07:40:33;24.50;;;17.85;;
769;SDS011;368;48.698;9.116;2023-03-01T07:43:00;27.73;;;20.50;;
769;SDS011;368;48.698;9.116;2023-03-01T07:45:27;33.60;;;22.07;;
769;SDS011;368;48.698;9.116;2023-03-01T07:47:55;28.27;;;21.10;;
769;SDS011;368;48.698;9.116;2023-03-01T07:50:23;28.23;;;21.50;;
769;SDS011;368;48.698;9.116;2023-03-01T07:52:50;26.80;;;19.77;;
769;SDS011;368;48.698;9.116;2023-03-01T07:55:17;29.03;;;21.67;;
769;SDS011;368;48.698;9.116;2023-03-01T07:57:45;26.13;;;20.40;;
769;SDS011;368;48.698;9.116;2023-03-01T08:00:12;30.07;;;22.00;;
769;SDS011;368;48.698;9.116;2023-03-01T08:02:39;29.00;;;21.23;;
769;SDS011;368;48.698;9.116;2023-03-01T08:05:07;28.23;;;20.53;;
769;SDS011;368;48.698;9.116;2023-03-01T08:07:36;30.80;;;21.80;;
769;SDS011;368;48.698;9.116;2023-03-01T08:10:03;25.27;;;20.73;;
769;SDS011;368;48.698;9.116;2023-03-01T08:12:31;26.20;;;22.00;;
769;SDS011;368;48.698;9.116;2023-03-01T08:14:58;27.67;;;20.73;;
769;SDS011;368;48.698;9.116;2023-03-01T08:17:25;27.60;;;20.63;;
769;SDS011;368;48.698;9.116;2023-03-01T08:19:52;29.50;;;21.17;;
769;SDS011;368;48.698;9.116;2023-03-01T08:22:19;28.27;;;20.10;;
769;SDS011;368;48.698;9.116;2023-03-01T08:24:47;28.47;;;23.17;;
769;SDS011;368;48.698;9.116;2023-03-01T08:27:14;27.07;;;20.67;;
769;SDS011;368;48.698;9.116;2023-03-01T08:29:41;23.47;;;20.17;;
769;SDS011;368;48.698;9.116;2023-03-01T08:32:08;28.37;;;20.67;;
769;SDS011;368;48.698;9.116;2023-03-01T08:34:35;28.80;;;21.50;;
769;SDS011;368;48.698;9.116;2023-03-01T08:37:02;27.13;;;21.60;;
769;SDS011;368;48.698;9.116;2023-03-01T08:39:29;24.30;;;19.40;;
769;SDS011;368;48.698;9.116;2023-03-01T08:41:57;30.53;;;22.20;;
769;SDS011;368;48.698;9.116;2023-03-01T08:44:24;27.30;;;21.40;;
769;SDS011;368;48.698;9.116;2023-03-01T08:46:51;27.57;;;22.27;;
769;SDS011;368;48.698;9.116;2023-03-01T08:49:20;27.87;;;21.60;;
769;SDS011;368;48.698;9.116;2023-03-01T08:51:47;23.40;;;19.60;;
769;SDS011;368;48.698;9.116;2023-03-01T08:54:15;26.33;;;18.93;;
769;SDS011;368;48.698;9.116;2023-03-01T08:56:43;28.27;;;22.13;;
769;SDS011;368;48.698;9.116;2023-03-01T08:59:13;25.97;;;19.83;;
769;SDS011;368;48.698;9.116;2023-03-01T09:01:40;30.70;;;21.43;;
769;SDS011;368;48.698;9.116;2023-03-01T09:04:08;26.73;;;20.53;;
769;SDS011;368;48.698;9.116;2023-03-01T09:06:35;23.37;;;19.80;;
769;SDS011;368;48.698;9.116;2023-03-01T09:09:03;24.17;;;19.40;;
769;SDS011;368;48.698;9.116;2023-03-01T09:11:31;23.97;;;19.40;;
769;SDS011;368;48.698;9.116;2023-03-01T09:13:58;23.77;;;18.60;;
769;SDS011;368;48.698;9.116;2023-03-01T09:16:26;27.87;;;21.20;;
769;SDS011;368;48.698;9.116;2023-03-01T09:18:54;28.27;;;22.00;;
769;SDS011;368;48.698;9.116;2023-03-01T09:21:22;26.87;;;20.00;;
769;SDS011;368;48.698;9.116;2023-03-01T09:23:49;28.60;;;21.03;;
769;SDS011;368;48.698;9.116;2023-03-01T09:26:17;24.70;;;19.57;;
769;SDS011;368;48.698;9.116;2023-03-01T09:28:46;24.53;;;20.23;;
769;SDS011;368;48.698;9.116;2023-03-01T09:31:14;28.97;;;20.97;;
769;SDS011;368;48.698;9.116;2023-03-01T09:33:44;28.90;;;21.00;;
769;SDS011;368;48.698;9.116;2023-03-01T09:36:15;28.57;;;22.00;;
769;SDS011;368;48.698;9.116;2023-03-01T09:38:44;26.83;;;21.00;;
769;SDS011;368;48.698;9.116;2023-03-01T09:41:11;26.10;;;20.37;;
769;SDS011;368;48.698;9.116;2023-03-01T09:43:53;28.03;;;20.73;;
769;SDS011;368;48.698;9.116;2023-03-01T09:46:24;20.80;;;18.37;;
769;SDS011;368;48.698;9.116;2023-03-01T09:48:55;23.77;;;20.20;;
769;SDS011;368;48.698;9.116;2023-03-01T09:51:26;21.23;;;18.77;;
769;SDS011;368;48.698;9.116;2023-03-01T09:53:56;23.00;;;18.97;;
769;SDS011;368;48.698;9.116;2023-03-01T09:56:24;20.87;;;18.77;;
769;SDS011;368;48.698;9.116;2023-03-01T09:58:59;23.40;;;18.80;;
769;SDS011;368;48.698;9.116;2023-03-01T10:01:38;22.57;;;19.60;;
769;SDS011;368;48.698;9.116;2023-03-01T10:04:21;23.10;;;20.70;;
769;SDS011;368;48.698;9.116;2023-03-01T10:07:03;22.00;;;19.70;;
769;SDS011;368;48.698;9.116;2023-03-01T10:09:39;21.37;;;19.10;;
769;SDS011;368;48.698;9.116;2023-03-01T10:12:08;22.93;;;19.80;;
769;SDS011;368;48.698;9.116;2023-03-01T10:14:39;24.03;;;20.20;;
769;SDS011;368;48.698;9.116;2023-03-01T10:17:12;21.77;;;19.47;;
769;SDS011;368;48.698;9.116;2023-03-01T10:19:51;22.83;;;20.00;;
769;SDS011;368;48.698;9.116;2023-03-01T10:22:19;21.67;;;19.47;;
769;SDS011;368;48.698;9.116;2023-03-01T10:24:47;23.10;;;19.70;;
769;SDS011;368;48.698;9.116;2023-03-01T10:27:17;19.87;;;17.77;;
769;SDS011;368;48.698;9.116;2023-03-01T10:29:48;21.93;;;19.73;;
769;SDS011;368;48.698;9.116;2023-03-01T10:32:21;20.77;;;18.67;;
769;SDS011;368;48.698;9.116;2023-03-01T10:34:48;22.67;;;20.27;;
769;SDS011;368;48.698;9.116;2023-03-01T10:37:17;20.13;;;18.13;;
769;SDS011;368;48.698;9.116;2023-03-01T10:39:56;22.20;;;17.70;;
769;SDS011;368;48.698;9.116;2023-03-01T10:42:28;22.60;;;19.27;;
769;SDS011;368;48.698;9.116;2023-03-01T10:44:57;21.23;;;18.37;;
769;SDS011;368;48.698;9.116;2023-03-01T10:47:40;21.97;;;19.67;;
769;SDS011;368;48.698;9.116;2023-03-01T10:50:23;23.70;;;20.67;;
769;SDS011;368;48.698;9.116;2023-03-01T10:52:57;27.93;;;20.93;;
769;SDS011;368;48.698;9.116;2023-03-01T10:55:27;19.63;;;17.63;;
769;SDS011;368;48.698;9.116;2023-03-01T10:58:06;23.40;;;19.70;;
769;SDS011;368;48.698;9.116;2023-03-01T11:00:44;21.93;;;19.63;;
769;SDS011;368;48.698;9.116;2023-03-01T11:03:13;22.80;;;20.33;;
769;SDS011;368;48.698;9.116;2023-03-01T11:05:53;21.90;;;19.67;;
769;SDS011;368;48.698;9.116;2023-03-01T11:08:41;23.70;;;21.30;;
769;SDS011;368;48.698;9.116;2023-03-01T11:11:21;22.27;;;20.07;;
769;SDS011;368;48.698;9.116;2023-03-01T11:13:57;22.00;;;19.60;;
769;SDS011;368;48.698;9.116;2023-03-01T11:16:29;23.50;;;21.13;;
769;SDS011;368;48.698;9.116;2023-03-01T11:19:03;24.07;;;18.90;;
769;SDS011;368;48.698;9.116;2023-03-01T11:21:41;22.73;;;20.20;;
769;SDS011;368;48.698;9.116;2023-03-01T11:24:14;24.20;;;20.67;;
769;SDS011;368;48.698;9.116;2023-03-01T11:26:44;22.30;;;20.03;;
769;SDS011;368;48.698;9.116;2023-03-01T11:29:17;21.87;;;19.73;;
769;SDS011;368;48.698;9.116;2023-03-01T11:31:53;20.87;;;18.73;;
769;SDS011;368;48.698;9.116;2023-03-01T11:34:24;23.77;;;21.30;;
769;SDS011;368;48.698;9.116;2023-03-01T11:37:04;21.87;;;19.67;;
769;SDS011;368;48.698;9.116;2023-03-01T11:39:42;23.33;;;19.83;;
769;SDS011;368;48.698;9.116;2023-03-01T11:42:17;22.50;;;20.30;;
769;SDS011;368;48.698;9.116;2023-03-01T11:44:47;21.20;;;19.00;;
769;SDS011;368;48.698;9.116;2023-03-01T11:47:22;23.30;;;20.87;;
769;SDS011;368;48.698;9.116;2023-03-01T11:50:00;22.67;;;20.57;;
769;SDS011;368;48.698;9.116;2023-03-01T11:52:36;21.33;;;19.03;;
769;SDS011;368;48.698;9.116;2023-03-01T11:55:21;23.17;;;20.63;;
769;SDS011;368;48.698;9.116;2023-03-01T11:58:11;21.33;;;18.93;;
769;SDS011;368;48.698;9.116;2023-03-01T12:04:00;21.00;;;18.80;;
769;SDS011;368;48.698;9.116;2023-03-01T12:06:52;20.70;;;18.60;;
769;SDS011;368;48.698;9.116;2023-03-01T12:09:27;21.00;;;19.00;;
769;SDS011;368;48.698;9.116;2023-03-01T12:12:09;22.87;;;20.03;;
769;SDS011;368;48.698;9.116;2023-03-01T12:14:53;20.93;;;18.63;;
769;SDS011;368;48.698;9.116;2023-03-01T12:17:36;20.20;;;18.10;;
769;SDS011;368;48.698;9.116;2023-03-01T12:20:15;22.43;;;20.10;;
769;SDS011;368;48.698;9.116;2023-03-01T12:22:53;22.00;;;18.60;;
769;SDS011;368;48.698;9.116;2023-03-01T12:25:43;21.37;;;19.17;;
769;SDS011;368;48.698;9.116;2023-03-01T12:28:22;21.80;;;18.43;;
769;SDS011;368;48.698;9.116;2023-03-01T12:31:23;22.37;;;20.17;;
769;SDS011;368;48.698;9.116;2023-03-01T12:37:35;20.20;;;18.30;;
769;SDS011;368;48.698;9.116;2023-03-01T12:40:22;21.33;;;18.30;;
769;SDS011;368;48.698;9.116;2023-03-01T12:43:13;20.07;;;17.97;;
769;SDS011;368;48.698;9.116;2023-03-01T12:46:06;20.13;;;17.70;;
769;SDS011;368;48.698;9.116;2023-03-01T12:48:43;18.80;;;16.80;;
769;SDS011;368;48.698;9.116;2023-03-01T12:51:18;20.80;;;18.70;;
769;SDS011;368;48.698;9.116;2023-03-01T12:53:51;19.60;;;17.60;;
769;SDS011;368;48.698;9.116;2023-03-01T12:56:20;21.87;;;19.57;;
769;SDS011;368;48.698;9.116;2023-03-01T12:58:54;21.30;;;19.10;;
769;SDS011;368;48.698;9.116;2023-03-01T13:01:36;19.80;;;17.20;;
769;SDS011;368;48.698;9.116;2023-03-01T13:07:01;19.73;;;17.73;;
769;SDS011;368;48.698;9.116;2023-03-01T13:09:39;20.47;;;18.47;;
769;SDS011;368;48.698;9.116;2023-03-01T13:17:58;19.93;;;17.33;;
769;SDS011;368;48.698;9.116;2023-03-01T13:20:29;19.20;;;17.30;;
769;SDS011;368;48.698;9.116;2023-03-01T13:23:02;18.37;;;15.80;;
769;SDS011;368;48.698;9.116;2023-03-01T13:25:35;17.67;;;15.87;;
769;SDS011;368;48.698;9.116;2023-03-01T13:28:38;18.33;;;16.47;;
769;SDS011;368;48.698;9.116;2023-03-01T13:37:27;19.57;;;16.70;;
769;SDS011;368;48.698;9.116;2023-03-01T13:40:00;19.57;;;17.20;;
769;SDS011;368;48.698;9.116;2023-03-01T13:42:35;17.23;;;15.57;;
769;SDS011;368;48.698;9.116;2023-03-01T13:45:04;19.27;;;15.83;;
769;SDS011;368;48.698;9.116;2023-03-01T13:47:41;19.37;;;17.40;;
769;SDS011;368;48.698;9.116;2023-03-01T13:50:18;18.60;;;16.60;;
769;SDS011;368;48.698;9.116;2023-03-01T13:52:48;18.07;;;16.20;;
769;SDS011;368;48.698;9.116;2023-03-01T13:55:21;19.93;;;16.77;;
769;SDS011;368;48.698;9.116;2023-03-01T13:57:50;19.30;;;16.43;;
769;SDS011;368;48.698;9.116;2023-03-01T14:00:29;17.00;;;15.20;;
769;SDS011;368;48.698;9.116;2023-03-01T14:05:57;17.97;;;15.67;;
769;SDS011;368;48.698;9.116;2023-03-01T14:08:26;18.03;;;15.80;;
769;SDS011;368;48.698;9.116;2023-03-01T14:11:07;18.77;;;16.77;;
769;SDS011;368;48.698;9.116;2023-03-01T14:13:53;20.27;;;18.10;;
769;SDS011;368;48.698;9.116;2023-03-01T14:16:39;22.20;;;19.37;;
769;SDS011;368;48.698;9.116;2023-03-01T14:19:14;21.80;;;19.43;;
769;SDS011;368;48.698;9.116;2023-03-01T14:21:46;19.53;;;17.17;;
769;SDS011;368;48.698;9.116;2023-03-01T14:24:18;23.90;;;20.23;;
769;SDS011;368;48.698;9.116;2023-03-01T14:26:47;20.30;;;18.20;;
769;SDS011;368;48.698;9.116;2023-03-01T14:29:25;23.13;;;19.50;;
769;SDS011;368;48.698;9.116;2023-03-01T14:31:54;22.23;;;19.53;;
769;SDS011;368;48.698;9.116;2023-03-01T14:34:22;20.60;;;18.63;;
769;SDS011;368;48.698;9.116;2023-03-01T14:36:51;21.10;;;18.90;;
769;SDS011;368;48.698;9.116;2023-03-01T14:39:19;26.20;;;20.20;;
769;SDS011;368;48.698;9.116;2023-03-01T14:41:51;23.90;;;20.10;;
769;SDS011;368;48.698;9.116;2023-03-01T14:44:19;24.07;;;20.17;;
769;SDS011;368;48.698;9.116;2023-03-01T14:46:51;23.73;;;20.03;;
769;SDS011;368;48.698;9.116;2023-03-01T14:49:20;21.73;;;19.53;;
769;SDS011;368;48.698;9.116;2023-03-01T14:51:52;22.00;;;19.47;;
769;SDS011;368;48.698;9.116;2023-03-01T14:54:23;23.03;;;20.67;;
769;SDS011;368;48.698;9.116;2023-03-01T14:56:52;25.73;;;21.53;;
769;SDS011;368;48.698;9.116;2023-03-01T14:59:21;23.67;;;18.77;;
769;SDS011;368;48.698;9.116;2023-03-01T15:01:49;23.63;;;20.30;;
769;SDS011;368;48.698;9.116;2023-03-01T15:04:17;27.30;;;20.80;;
769;SDS011;368;48.698;9.116;2023-03-01T15:06:45;22.27;;;18.70;;
769;SDS011;368;48.698;9.116;2023-03-01T15:09:15;22.27;;;19.20;;
769;SDS011;368;48.698;9.116;2023-03-01T15:11:43;22.47;;;18.53;;
769;SDS011;368;48.698;9.116;2023-03-01T15:14:27;24.30;;;20.00;;
769;SDS011;368;48.698;9.116;2023-03-01T15:16:55;24.20;;;19.40;;
769;SDS011;368;48.698;9.116;2023-03-01T15:19:23;24.70;;;20.50;;
769;SDS011;368;48.698;9.116;2023-03-01T15:21:54;26.03;;;19.87;;
769;SDS011;368;48.698;9.116;2023-03-01T15:24:24;28.70;;;20.60;;
769;SDS011;368;48.698;9.116;2023-03-01T15:26:54;19.70;;;17.50;;
769;SDS011;368;48.698;9.116;2023-03-01T15:29:27;25.20;;;19.83;;
769;SDS011;368;48.698;9.116;2023-03-01T15:31:58;24.10;;;20.50;;
769;SDS011;368;48.698;9.116;2023-03-01T15:34:29;23.33;;;20.60;;
769;SDS011;368;48.698;9.116;2023-03-01T15:36:58;22.60;;;18.87;;
769;SDS011;368;48.698;9.116;2023-03-01T15:39:34;22.60;;;19.80;;
769;SDS011;368;48.698;9.116;2023-03-01T15:42:08;26.47;;;20.30;;
769;SDS011;368;48.698;9.116;2023-03-01T15:44:37;25.20;;;20.57;;
769;SDS011;368;48.698;9.116;2023-03-01T15:47:08;22.20;;;18.83;;
769;SDS011;368;48.698;9.116;2023-03-01T15:49:52;29.57;;;21.40;;
769;SDS011;368;48.698;9.116;2023-03-01T15:52:21;22.80;;;20.43;;
769;SDS011;368;48.698;9.116;2023-03-01T15:54:55;24.00;;;18.90;;
769;SDS011;368;48.698;9.116;2023-03-01T15:57:23;25.20;;;19.80;;
769;SDS011;368;48.698;9.116;2023-03-01T15:59:50;24.97;;;20.70;;
769;SDS011;368;48.698;9.116;2023-03-01T16:02:17;24.53;;;20.43;;
769;SDS011;368;48.698;9.116;2023-03-01T16:04:46;25.13;;;21.13;;